createdAt,value
2022-10-11T00:00:09.354Z,8.60
2022-10-11T00:02:36.160Z,8.60
2022-10-11T00:05:03.455Z,8.60
2022-10-11T00:07:30.204Z,8.60
2022-10-11T00:09:57.079Z,8.60
2022-10-11T00:12:23.851Z,8.60
2022-10-11T00:14:50.698Z,8.60
2022-10-11T00:17:17.639Z,8.60
2022-10-11T00:19:44.410Z,8.60
2022-10-11T00:22:11.245Z,8.60
2022-10-11T00:24:37.982Z,8.60
2022-10-11T00:27:04.957Z,8.60
2022-10-11T00:29:31.695Z,8.60
2022-10-11T00:31:58.604Z,8.70
2022-10-11T00:34:25.772Z,8.60
2022-10-11T00:36:52.560Z,8.60
2022-10-11T00:39:19.430Z,8.60
2022-10-11T00:41:47.814Z,8.50
2022-10-11T00:44:19.541Z,8.50
2022-10-11T00:46:58.373Z,8.50
2022-10-11T00:49:36.756Z,8.50
2022-10-11T00:52:13.871Z,8.40
2022-10-11T00:54:43.134Z,8.40
2022-10-11T00:57:14.323Z,8.40
2022-10-11T00:59:45.126Z,8.40
2022-10-11T01:02:13.779Z,8.40
2022-10-11T01:04:41.206Z,8.40
2022-10-11T01:07:09.316Z,8.30
2022-10-11T01:09:36.905Z,8.40
2022-10-11T01:12:07.059Z,8.40
2022-10-11T01:15:09.319Z,8.40
2022-10-11T01:17:36.034Z,8.40
2022-10-11T01:20:23.672Z,8.30
2022-10-11T01:23:24.584Z,8.30
2022-10-11T01:26:15.968Z,8.30
2022-10-11T01:28:51.543Z,8.30
2022-10-11T01:31:38.598Z,8.30
2022-10-11T01:34:35.929Z,8.30
2022-10-11T01:37:09.095Z,8.30
2022-10-11T01:39:58.902Z,8.30
2022-10-11T01:42:27.913Z,8.30
2022-10-11T01:44:57.438Z,8.20
2022-10-11T01:47:25.965Z,8.20
2022-10-11T01:49:59.295Z,8.30
2022-10-11T01:52:30.268Z,8.30
2022-10-11T01:55:15.520Z,8.30
2022-10-11T01:58:02.974Z,8.30
2022-10-11T02:00:38.498Z,8.30
2022-10-11T02:03:08.678Z,8.30
2022-10-11T02:06:01.193Z,8.30
2022-10-11T02:09:07.172Z,8.30
2022-10-11T02:11:36.401Z,8.30
2022-10-11T02:14:15.933Z,8.30
2022-10-11T02:17:07.805Z,8.30
2022-10-11T02:19:52.279Z,8.40
2022-10-11T02:22:25.142Z,8.30
2022-10-11T02:24:55.761Z,8.30
2022-10-11T02:27:25.687Z,8.30
2022-10-11T02:29:55.247Z,8.30
2022-10-11T02:32:24.224Z,8.30
2022-10-11T02:34:57.044Z,8.20
2022-10-11T02:37:41.447Z,8.20
2022-10-11T02:40:18.349Z,8.20
2022-10-11T02:43:02.010Z,8.10
2022-10-11T02:45:39.080Z,8.20
2022-10-11T02:48:08.594Z,8.20
2022-10-11T02:50:35.485Z,8.20
2022-10-11T02:53:04.507Z,8.20
2022-10-11T02:55:31.912Z,8.20
2022-10-11T02:57:58.667Z,8.20
2022-10-11T03:00:25.508Z,8.10
2022-10-11T03:02:52.485Z,8.10
2022-10-11T03:05:19.315Z,8.10
2022-10-11T03:07:46.213Z,8.00
2022-10-11T03:10:13.107Z,8.00
2022-10-11T03:12:39.937Z,7.90
2022-10-11T03:15:07.098Z,7.90
2022-10-11T03:17:37.553Z,7.90
2022-10-11T03:20:06.170Z,7.90
2022-10-11T03:22:32.959Z,7.90
2022-10-11T03:25:03.684Z,8.00
2022-10-11T03:27:31.725Z,7.90
2022-10-11T03:29:59.012Z,7.90
2022-10-11T03:32:26.041Z,7.90
2022-10-11T03:34:52.899Z,7.80
2022-10-11T03:37:19.718Z,7.90
2022-10-11T03:39:46.626Z,7.80
2022-10-11T03:42:14.280Z,7.90
2022-10-11T03:44:42.149Z,7.80
2022-10-11T03:47:09.401Z,7.80
2022-10-11T03:49:41.210Z,7.80
2022-10-11T03:52:10.364Z,7.90
2022-10-11T03:54:37.416Z,7.90
2022-10-11T03:57:04.290Z,7.90
2022-10-11T03:59:31.164Z,7.80
2022-10-11T04:01:57.924Z,7.90
2022-10-11T04:04:24.772Z,7.80
2022-10-11T04:06:51.597Z,7.90
2022-10-11T04:09:18.384Z,7.80
2022-10-11T04:11:45.162Z,7.70
2022-10-11T04:14:11.923Z,7.70
2022-10-11T04:16:38.844Z,7.70
2022-10-11T04:19:06.097Z,7.70
2022-10-11T04:21:33.031Z,7.70
2022-10-11T04:23:59.807Z,7.70
2022-10-11T04:26:26.643Z,7.70
2022-10-11T04:28:53.958Z,7.70
2022-10-11T04:31:20.880Z,7.70
2022-10-11T04:33:47.755Z,7.70
2022-10-11T04:36:18.745Z,7.80
2022-10-11T04:38:45.528Z,7.80
2022-10-11T04:41:14.973Z,7.80
2022-10-11T04:43:41.832Z,7.70
2022-10-11T04:46:10.404Z,7.70
2022-10-11T04:48:37.720Z,7.60
2022-10-11T04:51:04.811Z,7.60
2022-10-11T04:53:31.583Z,7.60
2022-10-11T04:56:01.118Z,7.60
2022-10-11T04:58:29.504Z,7.60
2022-10-11T05:00:56.927Z,7.60
2022-10-11T05:03:24.545Z,7.60
2022-10-11T05:05:52.824Z,7.60
2022-10-11T05:08:20.209Z,7.50
2022-10-11T05:11:07.681Z,7.40
2022-10-11T05:13:35.677Z,7.50
2022-10-11T05:16:08.236Z,7.60
2022-10-11T05:18:37.382Z,7.60
2022-10-11T05:21:05.615Z,7.60
2022-10-11T05:23:33.930Z,7.50
2022-10-11T05:26:00.776Z,7.50
2022-10-11T05:28:28.188Z,7.40
2022-10-11T05:30:55.407Z,7.40
2022-10-11T05:33:22.320Z,7.40
2022-10-11T05:35:49.518Z,7.50
2022-10-11T05:38:16.647Z,7.40
2022-10-11T05:40:43.647Z,7.40
2022-10-11T05:43:11.097Z,7.40
2022-10-11T05:45:42.958Z,7.40
2022-10-11T05:48:10.247Z,7.40
2022-10-11T05:50:37.849Z,7.40
2022-10-11T05:53:05.650Z,7.40
2022-10-11T05:55:40.915Z,7.40
2022-10-11T05:58:10.279Z,7.40
2022-10-11T06:00:38.089Z,7.50
2022-10-11T06:03:06.934Z,7.50
2022-10-11T06:05:37.049Z,7.50
2022-10-11T06:08:06.088Z,7.50
2022-10-11T06:10:33.492Z,7.40
2022-10-11T06:13:00.535Z,7.50
2022-10-11T06:15:27.445Z,7.60
2022-10-11T06:17:54.323Z,7.60
2022-10-11T06:20:21.117Z,7.60
2022-10-11T06:22:47.993Z,7.60
2022-10-11T06:25:14.890Z,7.60
2022-10-11T06:27:41.688Z,7.60
2022-10-11T06:30:09.200Z,7.60
2022-10-11T06:32:36.005Z,7.60
2022-10-11T06:35:04.195Z,7.60
2022-10-11T06:37:30.999Z,7.80
2022-10-11T06:39:57.916Z,7.90
2022-10-11T06:42:42.833Z,8.00
2022-10-11T06:45:10.001Z,8.00
2022-10-11T06:47:36.817Z,8.10
2022-10-11T06:50:03.921Z,8.10
2022-10-11T06:52:30.697Z,8.10
2022-10-11T06:54:57.475Z,8.20
2022-10-11T06:57:24.325Z,8.20
2022-10-11T06:59:51.181Z,8.30
2022-10-11T07:02:18.071Z,8.40
2022-10-11T07:04:44.983Z,8.50
2022-10-11T07:07:14.235Z,8.60
2022-10-11T07:09:41.272Z,8.70
2022-10-11T07:12:08.899Z,8.70
2022-10-11T07:14:35.719Z,8.70
2022-10-11T07:17:02.956Z,9.20
2022-10-11T07:19:29.889Z,8.60
2022-10-11T07:21:57.159Z,8.60
2022-10-11T07:24:24.159Z,8.70
2022-10-11T07:26:51.013Z,8.70
2022-10-11T07:29:18.120Z,8.80
2022-10-11T07:31:45.079Z,8.80
2022-10-11T07:34:12.313Z,8.80
2022-10-11T07:36:39.199Z,8.90
2022-10-11T07:39:07.505Z,8.90
2022-10-11T07:41:35.302Z,9.00
2022-10-11T07:44:03.249Z,9.00
2022-10-11T07:46:30.229Z,9.10
2022-10-11T07:48:57.014Z,9.20
2022-10-11T07:51:25.417Z,9.30
2022-10-11T07:53:55.783Z,9.40
2022-10-11T07:56:28.320Z,9.50
2022-10-11T07:59:01.007Z,9.70
2022-10-11T08:01:28.627Z,9.80
2022-10-11T08:03:59.602Z,9.80
2022-10-11T08:06:31.613Z,10.00
2022-10-11T08:09:00.575Z,10.60
2022-10-11T08:11:37.802Z,11.00
2022-10-11T08:14:08.869Z,11.50
2022-10-11T08:16:36.980Z,11.70
2022-10-11T08:19:03.972Z,11.70
2022-10-11T08:21:31.228Z,11.70
2022-10-11T08:23:58.178Z,11.70
2022-10-11T08:26:25.281Z,11.70
2022-10-11T08:28:52.224Z,12.30
2022-10-11T08:31:19.140Z,12.90
2022-10-11T08:33:46.058Z,13.50
2022-10-11T08:36:13.461Z,13.80
2022-10-11T08:38:41.295Z,14.10
2022-10-11T08:41:40.871Z,14.40
2022-10-11T08:44:41.550Z,14.60
2022-10-11T08:47:27.676Z,14.70
2022-10-11T08:49:56.057Z,14.80
2022-10-11T08:52:41.894Z,15.00
2022-10-11T08:55:17.667Z,15.10
2022-10-11T08:57:50.940Z,15.30
2022-10-11T09:00:19.985Z,15.60
2022-10-11T09:03:14.881Z,15.70
2022-10-11T09:06:12.417Z,15.60
2022-10-11T09:08:57.918Z,15.80
2022-10-11T09:11:51.128Z,16.00
2022-10-11T09:14:57.994Z,16.20
2022-10-11T09:17:24.705Z,16.50
2022-10-11T09:20:51.804Z,16.50
2022-10-11T09:24:02.033Z,16.60
2022-10-11T09:26:40.057Z,16.50
2022-10-11T09:29:27.964Z,16.80
2022-10-11T09:31:57.070Z,16.70
2022-10-11T09:34:33.918Z,16.80
2022-10-11T09:37:22.475Z,17.10
2022-10-11T09:39:58.757Z,17.30
2022-10-11T09:42:25.553Z,17.40
2022-10-11T09:44:52.563Z,17.20
2022-10-11T09:47:26.210Z,17.20
2022-10-11T09:50:18.361Z,17.40
2022-10-11T09:52:53.966Z,17.60
2022-10-11T09:55:35.071Z,17.40
2022-10-11T09:58:04.745Z,17.50
2022-10-11T10:00:33.897Z,17.80
2022-10-11T10:03:03.311Z,18.00
2022-10-11T10:05:36.916Z,18.10
2022-10-11T10:08:09.851Z,18.30
2022-10-11T10:10:55.810Z,18.30
2022-10-11T10:13:51.305Z,18.10
2022-10-11T10:16:25.893Z,17.80
2022-10-11T10:19:05.183Z,17.30
2022-10-11T10:21:35.464Z,16.80
2022-10-11T10:24:08.144Z,16.90
2022-10-11T10:26:35.662Z,16.90
2022-10-11T10:29:08.489Z,17.00
2022-10-11T10:32:12.941Z,17.40
2022-10-11T10:34:39.864Z,17.60
2022-10-11T10:37:15.649Z,17.60
2022-10-11T10:39:47.776Z,17.90
2022-10-11T10:42:17.750Z,17.70
2022-10-11T10:44:57.023Z,17.70
2022-10-11T10:48:00.850Z,17.10
2022-10-11T10:50:40.170Z,16.60
2022-10-11T10:53:25.572Z,16.20
2022-10-11T10:56:01.752Z,16.10
2022-10-11T10:58:57.345Z,16.10
2022-10-11T11:01:28.447Z,16.70
2022-10-11T11:04:11.436Z,16.60
2022-10-11T11:06:47.190Z,16.40
2022-10-11T11:09:44.189Z,15.80
2022-10-11T11:12:43.530Z,15.50
2022-10-11T11:15:13.719Z,15.30
2022-10-11T11:18:05.126Z,14.80
2022-10-11T11:20:46.041Z,14.50
2022-10-11T11:23:40.341Z,14.50
2022-10-11T11:26:32.783Z,14.40
2022-10-11T11:29:07.733Z,14.50
2022-10-11T11:31:56.462Z,14.60
2022-10-11T11:34:40.121Z,14.70
2022-10-11T11:37:22.966Z,14.70
2022-10-11T11:39:54.196Z,14.70
2022-10-11T11:42:35.872Z,14.60
2022-10-11T11:45:43.353Z,14.50
2022-10-11T11:48:20.597Z,14.40
2022-10-11T11:50:55.986Z,14.30
2022-10-11T11:53:50.707Z,14.00
2022-10-11T11:56:44.232Z,13.80
2022-10-11T11:59:30.369Z,13.60
2022-10-11T12:02:00.053Z,13.40
2022-10-11T12:04:31.289Z,13.40
2022-10-11T12:07:18.566Z,13.40
2022-10-11T12:09:52.781Z,13.70
2022-10-11T12:12:29.027Z,14.00
2022-10-11T12:15:20.140Z,14.10
2022-10-11T12:17:56.313Z,14.20
2022-10-11T12:20:41.339Z,14.30
2022-10-11T12:23:30.054Z,14.60
2022-10-11T12:26:28.099Z,14.80
2022-10-11T12:29:20.148Z,14.80
2022-10-11T12:32:30.972Z,14.90
2022-10-11T12:35:32.156Z,14.80
2022-10-11T12:38:21.824Z,14.70
2022-10-11T12:40:54.675Z,14.60
2022-10-11T12:43:28.498Z,14.50
2022-10-11T12:45:55.343Z,14.30
2022-10-11T12:48:54.226Z,14.20
2022-10-11T12:51:50.666Z,14.20
2022-10-11T12:54:45.507Z,14.30
2022-10-11T12:57:40.477Z,14.40
2022-10-11T13:00:34.499Z,14.40
2022-10-11T13:03:05.722Z,14.60
2022-10-11T13:05:45.146Z,14.50
2022-10-11T13:08:26.756Z,14.60
2022-10-11T13:10:56.737Z,14.60
2022-10-11T13:13:29.120Z,14.50
2022-10-11T13:15:59.009Z,14.50
2022-10-11T13:18:26.612Z,14.30
2022-10-11T13:20:53.387Z,14.30
2022-10-11T13:23:34.932Z,14.20
2022-10-11T13:26:02.405Z,14.10
2022-10-11T13:28:35.452Z,14.00
2022-10-11T13:31:04.498Z,13.90
2022-10-11T13:33:35.408Z,13.90
2022-10-11T13:36:06.150Z,13.70
2022-10-11T13:38:36.281Z,13.50
2022-10-11T13:41:06.130Z,13.50
2022-10-11T13:43:34.188Z,13.50
2022-10-11T13:46:04.983Z,13.60
2022-10-11T13:48:38.686Z,13.80
2022-10-11T13:51:26.573Z,13.80
2022-10-11T13:54:03.069Z,13.80
2022-10-11T13:56:37.161Z,13.70
2022-10-11T13:59:04.553Z,13.50
2022-10-11T14:01:44.937Z,13.40
2022-10-11T14:04:15.509Z,13.30
2022-10-11T14:06:56.443Z,13.40
2022-10-11T14:09:29.940Z,13.50
2022-10-11T14:12:25.716Z,13.60
2022-10-11T14:14:52.786Z,13.50
2022-10-11T14:17:43.047Z,13.50
2022-10-11T14:20:22.604Z,13.50
2022-10-11T14:22:53.809Z,13.60
2022-10-11T14:25:21.807Z,13.70
2022-10-11T14:27:49.131Z,13.70
2022-10-11T14:30:26.598Z,13.80
2022-10-11T14:32:56.610Z,13.80
2022-10-11T14:35:29.482Z,13.80
2022-10-11T14:37:56.326Z,13.80
2022-10-11T14:40:26.022Z,13.90
2022-10-11T14:42:52.931Z,13.80
2022-10-11T14:45:21.318Z,13.80
2022-10-11T14:47:48.649Z,13.80
2022-10-11T14:50:46.988Z,13.80
2022-10-11T14:53:14.262Z,13.80
2022-10-11T14:55:41.823Z,13.80
2022-10-11T14:58:10.168Z,13.80
2022-10-11T15:00:37.825Z,13.80
2022-10-11T15:03:07.256Z,13.80
2022-10-11T15:05:34.848Z,13.80
2022-10-11T15:08:07.133Z,13.80
2022-10-11T15:10:39.694Z,13.80
2022-10-11T15:13:07.379Z,13.80
2022-10-11T15:15:36.882Z,13.70
2022-10-11T15:18:06.059Z,13.60
2022-10-11T15:20:38.570Z,13.60
2022-10-11T15:23:07.721Z,13.70
2022-10-11T15:25:34.699Z,13.60
2022-10-11T15:28:02.040Z,13.60
2022-10-11T15:30:34.821Z,13.50
2022-10-11T15:33:04.856Z,13.50
2022-10-11T15:35:31.710Z,13.50
2022-10-11T15:38:00.256Z,13.40
2022-10-11T15:40:33.501Z,13.40
2022-10-11T15:43:00.677Z,13.30
2022-10-11T15:45:29.077Z,13.30
2022-10-11T15:47:56.099Z,13.30
2022-10-11T15:50:37.270Z,13.30
2022-10-11T15:53:13.533Z,13.30
2022-10-11T15:55:45.200Z,13.20
2022-10-11T15:58:26.681Z,13.10
2022-10-11T16:00:55.733Z,13.10
2022-10-11T16:03:25.416Z,12.90
2022-10-11T16:05:53.617Z,12.80
2022-10-11T16:08:21.425Z,12.70
2022-10-11T16:10:48.878Z,12.60
2022-10-11T16:13:16.379Z,12.60
2022-10-11T16:15:44.307Z,12.60
2022-10-11T16:18:14.770Z,12.60
2022-10-11T16:20:44.181Z,12.60
2022-10-11T16:23:12.101Z,12.60
2022-10-11T16:25:39.440Z,12.60
2022-10-11T16:28:08.004Z,12.60
2022-10-11T16:30:38.775Z,12.50
2022-10-11T16:33:05.552Z,12.50
2022-10-11T16:35:32.793Z,12.50
2022-10-11T16:38:00.898Z,12.50
2022-10-11T16:40:29.898Z,12.50
2022-10-11T16:42:56.792Z,12.40
2022-10-11T16:45:24.055Z,12.40
2022-10-11T16:47:50.849Z,12.30
2022-10-11T16:50:18.346Z,12.40
2022-10-11T16:52:45.116Z,12.30
2022-10-11T16:55:12.173Z,12.30
2022-10-11T16:57:39.077Z,12.20
2022-10-11T17:00:08.585Z,12.10
2022-10-11T17:02:36.598Z,12.00
2022-10-11T17:05:03.944Z,11.90
2022-10-11T17:07:31.161Z,11.80
2022-10-11T17:09:58.407Z,11.80
2022-10-11T17:12:25.464Z,11.70
2022-10-11T17:14:52.470Z,11.60
2022-10-11T17:17:19.594Z,11.40
2022-10-11T17:19:47.656Z,11.40
2022-10-11T17:22:17.814Z,11.30
2022-10-11T17:24:45.161Z,11.20
2022-10-11T17:27:12.178Z,11.10
2022-10-11T17:29:39.253Z,11.00
2022-10-11T17:32:06.564Z,10.90
2022-10-11T17:34:33.732Z,10.90
2022-10-11T17:37:00.601Z,10.80
2022-10-11T17:39:27.582Z,10.90
2022-10-11T17:41:54.552Z,10.90
2022-10-11T17:44:21.765Z,10.90
2022-10-11T17:46:48.850Z,11.00
2022-10-11T17:49:15.954Z,11.00
2022-10-11T17:51:43.453Z,11.00
2022-10-11T17:54:12.955Z,11.00
2022-10-11T17:56:41.965Z,11.00
2022-10-11T17:59:18.364Z,11.10
2022-10-11T18:01:45.236Z,11.10
2022-10-11T18:04:16.693Z,11.10
2022-10-11T18:06:45.917Z,11.10
2022-10-11T18:09:14.965Z,11.10
2022-10-11T18:11:42.294Z,11.10
2022-10-11T18:14:09.543Z,11.10
2022-10-11T18:16:37.548Z,11.10
2022-10-11T18:19:06.128Z,11.10
2022-10-11T18:21:34.850Z,11.10
2022-10-11T18:24:03.929Z,11.10
2022-10-11T18:26:31.201Z,11.10
2022-10-11T18:28:58.819Z,11.10
2022-10-11T18:31:27.935Z,11.10
2022-10-11T18:33:55.134Z,11.10
2022-10-11T18:36:24.469Z,11.10
2022-10-11T18:38:57.750Z,11.10
2022-10-11T18:41:30.693Z,11.00
2022-10-11T18:44:03.515Z,11.00
2022-10-11T18:46:31.014Z,10.90
2022-10-11T18:48:59.669Z,10.90
2022-10-11T18:51:33.014Z,10.90
2022-10-11T18:54:00.448Z,10.90
2022-10-11T18:56:29.238Z,10.90
2022-10-11T18:58:57.222Z,10.90
2022-10-11T19:01:33.038Z,10.90
2022-10-11T19:04:02.217Z,11.00
2022-10-11T19:06:34.824Z,11.00
2022-10-11T19:09:03.493Z,11.00
2022-10-11T19:11:30.838Z,11.00
2022-10-11T19:13:59.406Z,11.00
2022-10-11T19:16:27.409Z,11.00
2022-10-11T19:18:54.273Z,11.00
2022-10-11T19:21:21.713Z,11.00
2022-10-11T19:23:50.389Z,11.00
2022-10-11T19:26:27.065Z,11.00
2022-10-11T19:29:01.770Z,10.90
2022-10-11T19:31:30.363Z,10.90
2022-10-11T19:33:58.024Z,10.90
2022-10-11T19:36:25.544Z,10.80
2022-10-11T19:38:56.642Z,10.80
2022-10-11T19:41:25.470Z,10.80
2022-10-11T19:43:52.761Z,10.70
2022-10-11T19:46:44.423Z,10.70
2022-10-11T19:49:09.236Z,10.80
2022-10-11T19:51:38.122Z,10.80
2022-10-11T19:54:07.797Z,10.80
2022-10-11T19:56:34.791Z,10.80
2022-10-11T19:59:02.334Z,10.80
2022-10-11T20:01:30.832Z,10.80
2022-10-11T20:04:00.087Z,10.90
2022-10-11T20:06:27.938Z,10.90
2022-10-11T20:09:16.683Z,10.90
2022-10-11T20:11:41.954Z,10.80
2022-10-11T20:14:08.919Z,11.00
2022-10-11T20:16:36.299Z,11.00
2022-10-11T20:19:03.985Z,11.00
2022-10-11T20:21:31.191Z,11.00
2022-10-11T20:24:02.171Z,11.10
2022-10-11T20:26:30.618Z,11.00
2022-10-11T20:28:58.465Z,11.00
2022-10-11T20:31:28.740Z,11.00
2022-10-11T20:33:57.859Z,11.00
2022-10-11T20:36:27.916Z,11.00
2022-10-11T20:38:54.717Z,11.00
2022-10-11T20:41:26.692Z,11.00
2022-10-11T20:43:55.788Z,11.00
2022-10-11T20:46:33.958Z,11.00
2022-10-11T20:49:03.768Z,11.00
2022-10-11T20:51:32.391Z,10.90
2022-10-11T20:54:00.496Z,10.90
2022-10-11T20:56:27.827Z,11.00
2022-10-11T20:58:56.168Z,10.90
2022-10-11T21:01:28.300Z,10.90
2022-10-11T21:03:57.864Z,11.00
2022-10-11T21:06:25.145Z,11.00
2022-10-11T21:08:53.925Z,11.00
2022-10-11T21:11:20.735Z,11.00
2022-10-11T21:13:47.484Z,11.00
2022-10-11T21:16:15.932Z,11.00
2022-10-11T21:18:42.853Z,11.00
2022-10-11T21:21:12.189Z,11.00
2022-10-11T21:23:39.654Z,11.00
2022-10-11T21:26:09.302Z,11.00
2022-10-11T21:28:36.474Z,11.00
2022-10-11T21:31:05.510Z,10.90
2022-10-11T21:33:33.098Z,10.90
2022-10-11T21:36:04.492Z,11.00
2022-10-11T21:38:31.683Z,11.00
2022-10-11T21:40:58.640Z,10.90
2022-10-11T21:43:25.413Z,11.00
2022-10-11T21:45:52.195Z,10.90
2022-10-11T21:48:18.968Z,11.00
2022-10-11T21:50:54.903Z,11.00
2022-10-11T21:53:24.926Z,11.00
2022-10-11T21:56:00.708Z,11.00
2022-10-11T21:58:28.222Z,11.00
2022-10-11T22:00:55.076Z,11.00
2022-10-11T22:03:22.314Z,11.00
2022-10-11T22:05:49.249Z,11.00
2022-10-11T22:08:16.295Z,11.00
2022-10-11T22:10:44.226Z,11.00
2022-10-11T22:13:11.561Z,11.00
2022-10-11T22:15:39.534Z,11.00
2022-10-11T22:18:06.420Z,10.90
2022-10-11T22:20:34.072Z,10.90
2022-10-11T22:23:01.001Z,10.90
2022-10-11T22:25:27.869Z,10.90
2022-10-11T22:27:54.691Z,10.90
2022-10-11T22:30:21.489Z,10.90
2022-10-11T22:32:50.251Z,10.90
2022-10-11T22:35:17.205Z,10.90
2022-10-11T22:37:44.021Z,10.90
2022-10-11T22:40:11.047Z,10.90
2022-10-11T22:42:37.945Z,10.90
2022-10-11T22:45:05.183Z,11.00
2022-10-11T22:47:31.986Z,10.90
2022-10-11T22:49:58.761Z,11.00
2022-10-11T22:52:25.792Z,10.90
2022-10-11T22:54:52.596Z,10.90
2022-10-11T22:57:19.426Z,11.00
2022-10-11T22:59:46.258Z,11.00
2022-10-11T23:02:13.065Z,11.00
2022-10-11T23:04:39.869Z,10.90
2022-10-11T23:07:06.696Z,11.00
2022-10-11T23:09:33.502Z,10.90
2022-10-11T23:12:00.230Z,11.00
2022-10-11T23:14:27.056Z,11.00
2022-10-11T23:16:53.954Z,11.00
2022-10-11T23:19:20.871Z,11.00
2022-10-11T23:21:47.772Z,11.00
2022-10-11T23:24:14.744Z,10.90
2022-10-11T23:26:41.601Z,10.90
2022-10-11T23:29:08.537Z,10.90
2022-10-11T23:31:35.326Z,10.90
2022-10-11T23:34:02.125Z,11.00
2022-10-11T23:36:28.955Z,11.00
2022-10-11T23:38:57.815Z,11.00
2022-10-11T23:41:27.157Z,10.90
2022-10-11T23:43:54.104Z,11.00
2022-10-11T23:46:21.345Z,11.00
2022-10-11T23:48:48.509Z,11.00
2022-10-11T23:51:15.658Z,11.00
2022-10-11T23:53:42.440Z,11.00
2022-10-11T23:56:10.623Z,11.00
2022-10-11T23:58:37.603Z,11.00
